Etusivu
METAR-TAF:

METAR-TAF

Lentoasemat :

Ahvāz, Iran

Leveyspiiri: 31-20N, Pituuspiiri: 048-40E, korkeus merenpinnasta: 20 m

Tämänhetkinen sää

Tämä raportti tehtiin 20 minuuttia sitten, kello 04.00 UTC
Tuuli 2 kn idästä
Lämpötila 18°C
Kosteus 45%
Ilmanpaine 1010 hPa
Näkyvyys: 7000 m

METAR: OIAW 230400Z 08002KT 7000 NSC 18/06 Q1010

Aika: 07:50 (04:20 UTC)

Sääennuste

Tämä raportti tehtiin 5 tuntia ja 20 minuuttia sitten, kello 23.00 UTC
Ennuste voimassa 23. päivästä klo 00 UTC - 24. päivään klo 06 UTC
Tuuli 8 kn idästä/kaakosta
Näkyvyys: 7000 m
Ajoittain
23. päivästä klo 08 UTC - 23. päivään klo 14 UTC
Tuuli 12 kn pohjoisen/luoteesta
Ajoittain
24. päivästä klo 00 UTC - 24. päivään klo 06 UTC
Tuuli 16 kn pohjoisen/luoteesta

TAF: OIAW 222300Z 2300/2406 12004MPS 7000 NSC TEMPO 2308/2314 33006MPS TEMPO 2400/2406 33008MPS

Säähavainnot ja -ennusteet yli 4000 lentoasemalta (METAR- ja TAF-raportit).

Käytössä olevat sääasemat on merkitty karttaan keltaisilla ja punaisilla pisteillä.

Aseta hiiri pisteen päälle nähdäksesi sääaseman nimen.

Klikkaa sitten nähdäksesi säähavainnot ja -ennusteet.

Kartan vaihtaminen: klikkaa mustalla rastilla varustettuja vihreitä pisteitä, niin voit zoomata sisään; viivalla varustettua vihreää pistettä, niin voit zoomata ulos tai vihreitä nuolia, niin pääset viereisille kartoille.


METAR-TAF: